sensor_id;sensor_type;location;lat;lon;timestamp;P1;durP1;ratioP1;P2;durP2;ratioP2
9034;SDS011;4552;43.422;24.592;2023-03-14T00:02:01;6.17;;;3.73;;
9034;SDS011;4552;43.422;24.592;2023-03-14T00:04:28;4.83;;;3.27;;
9034;SDS011;4552;43.422;24.592;2023-03-14T00:06:55;7.13;;;3.73;;
9034;SDS011;4552;43.422;24.592;2023-03-14T00:09:22;5.90;;;4.13;;
9034;SDS011;4552;43.422;24.592;2023-03-14T00:11:50;5.63;;;3.57;;
9034;SDS011;4552;43.422;24.592;2023-03-14T01:10:47;3.30;;;3.00;;
9034;SDS011;4552;43.422;24.592;2023-03-14T01:13:14;6.03;;;3.33;;
9034;SDS011;4552;43.422;24.592;2023-03-14T01:15:40;5.40;;;3.30;;
9034;SDS011;4552;43.422;24.592;2023-03-14T01:18:07;4.40;;;3.17;;
9034;SDS011;4552;43.422;24.592;2023-03-14T01:20:36;4.10;;;2.90;;
9034;SDS011;4552;43.422;24.592;2023-03-14T01:23:03;4.33;;;3.10;;
9034;SDS011;4552;43.422;24.592;2023-03-14T01:25:30;4.10;;;3.13;;
9034;SDS011;4552;43.422;24.592;2023-03-14T01:27:58;4.23;;;3.40;;
9034;SDS011;4552;43.422;24.592;2023-03-14T01:30:25;5.23;;;3.40;;
9034;SDS011;4552;43.422;24.592;2023-03-14T01:32:52;6.10;;;3.50;;
9034;SDS011;4552;43.422;24.592;2023-03-14T01:35:19;7.13;;;3.97;;
9034;SDS011;4552;43.422;24.592;2023-03-14T01:37:46;7.13;;;4.47;;
9034;SDS011;4552;43.422;24.592;2023-03-14T01:40:13;5.97;;;3.70;;
9034;SDS011;4552;43.422;24.592;2023-03-14T01:42:44;5.60;;;3.70;;
9034;SDS011;4552;43.422;24.592;2023-03-14T01:48:19;5.40;;;3.40;;
9034;SDS011;4552;43.422;24.592;2023-03-14T01:50:46;4.73;;;3.60;;
9034;SDS011;4552;43.422;24.592;2023-03-14T01:53:14;5.13;;;3.47;;
9034;SDS011;4552;43.422;24.592;2023-03-14T01:55:42;7.30;;;3.63;;
9034;SDS011;4552;43.422;24.592;2023-03-14T02:05:35;4.57;;;3.63;;
9034;SDS011;4552;43.422;24.592;2023-03-14T02:08:06;5.27;;;3.60;;
9034;SDS011;4552;43.422;24.592;2023-03-14T02:10:37;6.40;;;3.83;;
9034;SDS011;4552;43.422;24.592;2023-03-14T02:26:32;5.10;;;3.30;;
9034;SDS011;4552;43.422;24.592;2023-03-14T02:29:05;3.80;;;2.93;;
9034;SDS011;4552;43.422;24.592;2023-03-14T02:31:34;6.03;;;3.20;;
9034;SDS011;4552;43.422;24.592;2023-03-14T02:34:02;4.50;;;3.27;;
9034;SDS011;4552;43.422;24.592;2023-03-14T02:36:29;5.93;;;3.43;;
9034;SDS011;4552;43.422;24.592;2023-03-14T02:39:00;5.60;;;3.33;;
9034;SDS011;4552;43.422;24.592;2023-03-14T02:41:32;6.10;;;3.60;;
9034;SDS011;4552;43.422;24.592;2023-03-14T02:50:44;3.47;;;3.03;;
9034;SDS011;4552;43.422;24.592;2023-03-14T02:53:15;7.97;;;4.07;;
9034;SDS011;4552;43.422;24.592;2023-03-14T02:55:45;5.60;;;3.17;;
9034;SDS011;4552;43.422;24.592;2023-03-14T03:08:26;4.27;;;2.63;;
9034;SDS011;4552;43.422;24.592;2023-03-14T03:10:55;4.93;;;3.30;;
9034;SDS011;4552;43.422;24.592;2023-03-14T03:13:23;3.17;;;2.50;;
9034;SDS011;4552;43.422;24.592;2023-03-14T03:15:51;3.00;;;2.70;;
9034;SDS011;4552;43.422;24.592;2023-03-14T03:18:19;7.67;;;2.80;;
9034;SDS011;4552;43.422;24.592;2023-03-14T03:20:46;4.03;;;2.93;;
9034;SDS011;4552;43.422;24.592;2023-03-14T03:23:13;3.47;;;2.87;;
9034;SDS011;4552;43.422;24.592;2023-03-14T03:25:42;4.40;;;2.87;;
9034;SDS011;4552;43.422;24.592;2023-03-14T03:28:13;3.47;;;3.00;;
9034;SDS011;4552;43.422;24.592;2023-03-14T03:30:41;3.83;;;2.90;;
9034;SDS011;4552;43.422;24.592;2023-03-14T03:33:08;8.43;;;3.23;;
9034;SDS011;4552;43.422;24.592;2023-03-14T03:35:43;3.97;;;2.90;;
9034;SDS011;4552;43.422;24.592;2023-03-14T03:38:12;5.63;;;3.37;;
9034;SDS011;4552;43.422;24.592;2023-03-14T03:40:39;3.93;;;3.03;;
9034;SDS011;4552;43.422;24.592;2023-03-14T03:43:07;3.63;;;2.87;;
9034;SDS011;4552;43.422;24.592;2023-03-14T03:45:48;6.83;;;3.07;;
9034;SDS011;4552;43.422;24.592;2023-03-14T03:48:17;4.67;;;2.87;;
9034;SDS011;4552;43.422;24.592;2023-03-14T03:50:45;4.97;;;3.13;;
9034;SDS011;4552;43.422;24.592;2023-03-14T03:53:12;4.23;;;3.00;;
9034;SDS011;4552;43.422;24.592;2023-03-14T03:55:40;5.13;;;3.20;;
9034;SDS011;4552;43.422;24.592;2023-03-14T03:58:09;3.63;;;2.90;;
9034;SDS011;4552;43.422;24.592;2023-03-14T04:14:15;7.63;;;3.20;;
9034;SDS011;4552;43.422;24.592;2023-03-14T04:16:42;4.90;;;3.30;;
9034;SDS011;4552;43.422;24.592;2023-03-14T04:19:09;6.63;;;3.50;;
9034;SDS011;4552;43.422;24.592;2023-03-14T04:21:36;4.80;;;3.10;;
9034;SDS011;4552;43.422;24.592;2023-03-14T04:24:05;6.30;;;4.30;;
9034;SDS011;4552;43.422;24.592;2023-03-14T04:26:32;4.67;;;3.33;;
9034;SDS011;4552;43.422;24.592;2023-03-14T04:55:48;4.60;;;3.60;;
9034;SDS011;4552;43.422;24.592;2023-03-14T04:58:15;5.27;;;4.00;;
9034;SDS011;4552;43.422;24.592;2023-03-14T05:00:42;6.17;;;4.63;;
9034;SDS011;4552;43.422;24.592;2023-03-14T05:03:10;7.27;;;5.33;;
9034;SDS011;4552;43.422;24.592;2023-03-14T05:05:37;6.77;;;4.60;;
9034;SDS011;4552;43.422;24.592;2023-03-14T05:08:04;6.17;;;4.17;;
9034;SDS011;4552;43.422;24.592;2023-03-14T05:10:31;5.03;;;3.77;;
9034;SDS011;4552;43.422;24.592;2023-03-14T05:12:59;7.60;;;3.80;;
9034;SDS011;4552;43.422;24.592;2023-03-14T05:15:26;5.70;;;3.93;;
9034;SDS011;4552;43.422;24.592;2023-03-14T05:17:53;5.67;;;3.77;;
9034;SDS011;4552;43.422;24.592;2023-03-14T05:20:20;6.77;;;5.00;;
9034;SDS011;4552;43.422;24.592;2023-03-14T05:22:47;5.83;;;4.47;;
9034;SDS011;4552;43.422;24.592;2023-03-14T05:25:17;10.00;;;4.90;;
9034;SDS011;4552;43.422;24.592;2023-03-14T05:27:44;8.83;;;5.20;;
9034;SDS011;4552;43.422;24.592;2023-03-14T05:40:18;9.87;;;4.53;;
9034;SDS011;4552;43.422;24.592;2023-03-14T05:42:45;7.80;;;4.43;;
9034;SDS011;4552;43.422;24.592;2023-03-14T05:58:41;4.17;;;3.23;;
9034;SDS011;4552;43.422;24.592;2023-03-14T06:22:21;4.70;;;3.50;;
9034;SDS011;4552;43.422;24.592;2023-03-14T06:24:48;7.70;;;4.90;;
9034;SDS011;4552;43.422;24.592;2023-03-14T06:27:15;9.77;;;5.00;;
9034;SDS011;4552;43.422;24.592;2023-03-14T06:29:42;8.83;;;4.77;;
9034;SDS011;4552;43.422;24.592;2023-03-14T06:32:09;9.27;;;5.07;;
9034;SDS011;4552;43.422;24.592;2023-03-14T06:34:36;8.30;;;6.40;;
9034;SDS011;4552;43.422;24.592;2023-03-14T06:37:03;9.30;;;6.13;;
9034;SDS011;4552;43.422;24.592;2023-03-14T06:39:32;9.77;;;6.00;;
9034;SDS011;4552;43.422;24.592;2023-03-14T06:41:59;10.37;;;6.23;;
9034;SDS011;4552;43.422;24.592;2023-03-14T08:07:49;3.67;;;3.10;;
9034;SDS011;4552;43.422;24.592;2023-03-14T08:10:16;6.70;;;3.33;;
9034;SDS011;4552;43.422;24.592;2023-03-14T08:12:49;5.87;;;3.57;;
9034;SDS011;4552;43.422;24.592;2023-03-14T08:15:21;4.40;;;3.43;;
9034;SDS011;4552;43.422;24.592;2023-03-14T08:17:48;4.82;;;3.85;;
9034;SDS011;4552;43.422;24.592;2023-03-14T08:20:16;4.93;;;3.73;;
9034;SDS011;4552;43.422;24.592;2023-03-14T08:22:43;5.00;;;3.37;;
9034;SDS011;4552;43.422;24.592;2023-03-14T08:25:12;3.87;;;3.40;;
9034;SDS011;4552;43.422;24.592;2023-03-14T08:27:39;5.47;;;4.50;;
9034;SDS011;4552;43.422;24.592;2023-03-14T08:30:07;5.30;;;3.93;;
9034;SDS011;4552;43.422;24.592;2023-03-14T08:32:36;6.03;;;3.80;;
9034;SDS011;4552;43.422;24.592;2023-03-14T08:35:04;6.07;;;4.70;;
9034;SDS011;4552;43.422;24.592;2023-03-14T08:37:32;4.90;;;3.90;;
9034;SDS011;4552;43.422;24.592;2023-03-14T08:40:00;4.50;;;3.50;;
9034;SDS011;4552;43.422;24.592;2023-03-14T08:42:32;5.63;;;3.87;;
9034;SDS011;4552;43.422;24.592;2023-03-14T08:51:42;7.97;;;4.20;;
9034;SDS011;4552;43.422;24.592;2023-03-14T08:54:09;4.47;;;3.97;;
9034;SDS011;4552;43.422;24.592;2023-03-14T08:56:36;7.67;;;4.10;;
9034;SDS011;4552;43.422;24.592;2023-03-14T08:59:05;5.07;;;3.80;;
9034;SDS011;4552;43.422;24.592;2023-03-14T09:18:59;3.90;;;3.30;;
9034;SDS011;4552;43.422;24.592;2023-03-14T09:21:25;5.70;;;3.37;;
9034;SDS011;4552;43.422;24.592;2023-03-14T09:23:53;5.10;;;3.17;;
9034;SDS011;4552;43.422;24.592;2023-03-14T09:26:20;4.37;;;3.10;;
9034;SDS011;4552;43.422;24.592;2023-03-14T09:28:47;3.53;;;3.10;;
9034;SDS011;4552;43.422;24.592;2023-03-14T09:31:15;7.03;;;3.43;;
9034;SDS011;4552;43.422;24.592;2023-03-14T09:33:44;4.50;;;2.97;;
9034;SDS011;4552;43.422;24.592;2023-03-14T09:36:11;4.43;;;3.07;;
9034;SDS011;4552;43.422;24.592;2023-03-14T09:38:38;3.63;;;2.97;;
9034;SDS011;4552;43.422;24.592;2023-03-14T09:41:11;3.00;;;2.70;;
9034;SDS011;4552;43.422;24.592;2023-03-14T09:43:40;4.23;;;2.83;;
9034;SDS011;4552;43.422;24.592;2023-03-14T11:25:54;2.17;;;1.60;;
9034;SDS011;4552;43.422;24.592;2023-03-14T11:28:29;2.10;;;1.87;;
9034;SDS011;4552;43.422;24.592;2023-03-14T11:31:04;2.67;;;1.80;;
9034;SDS011;4552;43.422;24.592;2023-03-14T11:33:45;1.63;;;1.53;;
9034;SDS011;4552;43.422;24.592;2023-03-14T11:36:15;2.10;;;1.80;;
9034;SDS011;4552;43.422;24.592;2023-03-14T11:38:48;3.87;;;1.70;;
9034;SDS011;4552;43.422;24.592;2023-03-14T11:41:18;3.00;;;1.70;;
9034;SDS011;4552;43.422;24.592;2023-03-14T11:43:51;1.23;;;1.20;;
9034;SDS011;4552;43.422;24.592;2023-03-14T11:49:40;1.80;;;1.37;;
9034;SDS011;4552;43.422;24.592;2023-03-14T11:52:10;1.87;;;1.70;;
9034;SDS011;4552;43.422;24.592;2023-03-14T11:54:45;2.63;;;1.50;;
9034;SDS011;4552;43.422;24.592;2023-03-14T11:57:18;3.43;;;2.13;;
9034;SDS011;4552;43.422;24.592;2023-03-14T11:59:47;1.60;;;1.50;;
9034;SDS011;4552;43.422;24.592;2023-03-14T12:02:21;2.07;;;1.80;;
9034;SDS011;4552;43.422;24.592;2023-03-14T12:04:58;1.83;;;1.50;;
9034;SDS011;4552;43.422;24.592;2023-03-14T12:07:50;2.53;;;1.20;;
9034;SDS011;4552;43.422;24.592;2023-03-14T12:10:40;2.33;;;1.43;;
9034;SDS011;4552;43.422;24.592;2023-03-14T12:13:13;1.47;;;1.37;;
9034;SDS011;4552;43.422;24.592;2023-03-14T12:15:46;5.07;;;1.43;;
9034;SDS011;4552;43.422;24.592;2023-03-14T12:18:19;5.97;;;1.80;;
9034;SDS011;4552;43.422;24.592;2023-03-14T12:20:53;2.13;;;1.57;;
9034;SDS011;4552;43.422;24.592;2023-03-14T12:23:22;1.90;;;1.70;;
9034;SDS011;4552;43.422;24.592;2023-03-14T12:26:05;1.48;;;1.38;;
9034;SDS011;4552;43.422;24.592;2023-03-14T12:28:35;7.93;;;1.50;;
9034;SDS011;4552;43.422;24.592;2023-03-14T12:39:46;1.20;;;1.13;;
9034;SDS011;4552;43.422;24.592;2023-03-14T12:42:34;1.87;;;1.50;;
9034;SDS011;4552;43.422;24.592;2023-03-14T12:45:22;1.80;;;1.40;;
9034;SDS011;4552;43.422;24.592;2023-03-14T12:47:52;1.50;;;1.40;;
9034;SDS011;4552;43.422;24.592;2023-03-14T12:50:53;2.97;;;2.27;;
9034;SDS011;4552;43.422;24.592;2023-03-14T12:53:47;2.50;;;1.97;;
9034;SDS011;4552;43.422;24.592;2023-03-14T12:56:28;1.37;;;1.27;;
9034;SDS011;4552;43.422;24.592;2023-03-14T13:01:59;1.30;;;1.20;;
9034;SDS011;4552;43.422;24.592;2023-03-14T13:04:29;1.37;;;1.27;;
9034;SDS011;4552;43.422;24.592;2023-03-14T13:07:00;1.10;;;1.10;;
9034;SDS011;4552;43.422;24.592;2023-03-14T13:09:35;1.23;;;1.13;;
9034;SDS011;4552;43.422;24.592;2023-03-14T13:12:16;1.30;;;1.20;;
9034;SDS011;4552;43.422;24.592;2023-03-14T13:14:44;1.40;;;1.30;;
9034;SDS011;4552;43.422;24.592;2023-03-14T13:17:15;2.00;;;1.43;;
9034;SDS011;4552;43.422;24.592;2023-03-14T13:19:49;1.00;;;1.00;;
9034;SDS011;4552;43.422;24.592;2023-03-14T13:22:21;1.37;;;1.10;;
9034;SDS011;4552;43.422;24.592;2023-03-14T13:24:57;2.73;;;1.27;;
9034;SDS011;4552;43.422;24.592;2023-03-14T13:27:25;1.20;;;1.10;;
9034;SDS011;4552;43.422;24.592;2023-03-14T13:29:52;1.30;;;1.20;;
9034;SDS011;4552;43.422;24.592;2023-03-14T13:32:21;1.47;;;1.30;;
9034;SDS011;4552;43.422;24.592;2023-03-14T13:34:55;2.40;;;1.70;;
9034;SDS011;4552;43.422;24.592;2023-03-14T13:37:23;1.07;;;1.07;;
9034;SDS011;4552;43.422;24.592;2023-03-14T13:39:51;1.10;;;1.10;;
9034;SDS011;4552;43.422;24.592;2023-03-14T13:42:20;1.33;;;1.23;;
9034;SDS011;4552;43.422;24.592;2023-03-14T13:44:51;1.63;;;1.37;;
9034;SDS011;4552;43.422;24.592;2023-03-14T16:25:04;2.47;;;1.90;;
9034;SDS011;4552;43.422;24.592;2023-03-14T16:27:32;2.73;;;1.70;;
9034;SDS011;4552;43.422;24.592;2023-03-14T16:29:59;2.80;;;2.20;;
9034;SDS011;4552;43.422;24.592;2023-03-14T17:09:29;5.90;;;3.87;;
9034;SDS011;4552;43.422;24.592;2023-03-14T17:11:56;9.37;;;5.00;;
9034;SDS011;4552;43.422;24.592;2023-03-14T17:14:23;7.43;;;4.03;;
9034;SDS011;4552;43.422;24.592;2023-03-14T17:16:50;7.13;;;3.63;;
9034;SDS011;4552;43.422;24.592;2023-03-14T17:48:24;5.73;;;3.13;;
9034;SDS011;4552;43.422;24.592;2023-03-14T17:50:51;6.07;;;3.60;;
9034;SDS011;4552;43.422;24.592;2023-03-14T17:53:18;3.80;;;3.07;;
9034;SDS011;4552;43.422;24.592;2023-03-14T17:55:45;6.40;;;3.70;;
9034;SDS011;4552;43.422;24.592;2023-03-14T17:58:21;5.03;;;3.37;;
9034;SDS011;4552;43.422;24.592;2023-03-14T18:00:51;8.07;;;3.30;;
9034;SDS011;4552;43.422;24.592;2023-03-14T18:03:22;4.93;;;3.33;;
9034;SDS011;4552;43.422;24.592;2023-03-14T18:05:49;5.20;;;3.53;;
9034;SDS011;4552;43.422;24.592;2023-03-14T18:08:16;9.17;;;4.40;;
9034;SDS011;4552;43.422;24.592;2023-03-14T18:10:43;9.73;;;4.00;;
9034;SDS011;4552;43.422;24.592;2023-03-14T18:13:10;6.77;;;4.30;;
9034;SDS011;4552;43.422;24.592;2023-03-14T20:28:02;5.00;;;3.47;;
9034;SDS011;4552;43.422;24.592;2023-03-14T20:30:29;5.23;;;2.60;;
9034;SDS011;4552;43.422;24.592;2023-03-14T20:32:56;2.33;;;2.10;;
9034;SDS011;4552;43.422;24.592;2023-03-14T20:35:23;2.80;;;2.30;;
9034;SDS011;4552;43.422;24.592;2023-03-14T20:37:50;5.10;;;2.73;;
9034;SDS011;4552;43.422;24.592;2023-03-14T20:40:20;4.47;;;2.10;;
9034;SDS011;4552;43.422;24.592;2023-03-14T20:42:48;2.47;;;2.23;;
9034;SDS011;4552;43.422;24.592;2023-03-14T20:45:17;3.83;;;2.30;;
9034;SDS011;4552;43.422;24.592;2023-03-14T20:47:44;3.00;;;2.13;;
9034;SDS011;4552;43.422;24.592;2023-03-14T20:50:11;4.30;;;2.50;;
9034;SDS011;4552;43.422;24.592;2023-03-14T20:52:38;3.90;;;2.43;;
9034;SDS011;4552;43.422;24.592;2023-03-14T22:03:53;3.10;;;2.50;;
9034;SDS011;4552;43.422;24.592;2023-03-14T22:06:20;2.83;;;2.53;;
9034;SDS011;4552;43.422;24.592;2023-03-14T22:08:47;8.73;;;4.57;;
9034;SDS011;4552;43.422;24.592;2023-03-14T22:11:14;6.83;;;2.40;;
9034;SDS011;4552;43.422;24.592;2023-03-14T22:13:41;10.23;;;4.60;;
9034;SDS011;4552;43.422;24.592;2023-03-14T22:16:08;10.30;;;4.60;;
9034;SDS011;4552;43.422;24.592;2023-03-14T22:18:35;9.13;;;4.13;;
9034;SDS011;4552;43.422;24.592;2023-03-14T22:21:03;25.13;;;3.80;;
9034;SDS011;4552;43.422;24.592;2023-03-14T22:23:31;22.00;;;3.83;;
9034;SDS011;4552;43.422;24.592;2023-03-14T22:25:57;18.90;;;3.57;;
9034;SDS011;4552;43.422;24.592;2023-03-14T22:28:24;13.07;;;3.27;;
9034;SDS011;4552;43.422;24.592;2023-03-14T22:30:51;14.47;;;3.20;;
9034;SDS011;4552;43.422;24.592;2023-03-14T22:33:18;5.35;;;2.83;;
9034;SDS011;4552;43.422;24.592;2023-03-14T22:35:46;11.73;;;3.10;;
9034;SDS011;4552;43.422;24.592;2023-03-14T22:38:15;5.37;;;3.53;;
9034;SDS011;4552;43.422;24.592;2023-03-14T22:40:42;8.25;;;4.30;;
9034;SDS011;4552;43.422;24.592;2023-03-14T22:43:09;8.10;;;4.13;;
9034;SDS011;4552;43.422;24.592;2023-03-14T22:45:36;5.40;;;3.37;;
9034;SDS011;4552;43.422;24.592;2023-03-14T22:48:03;5.83;;;3.43;;
9034;SDS011;4552;43.422;24.592;2023-03-14T22:50:30;6.30;;;3.07;;
9034;SDS011;4552;43.422;24.592;2023-03-14T22:52:57;5.57;;;3.70;;
9034;SDS011;4552;43.422;24.592;2023-03-14T22:55:25;4.27;;;2.80;;
9034;SDS011;4552;43.422;24.592;2023-03-14T23:11:54;7.63;;;3.20;;
9034;SDS011;4552;43.422;24.592;2023-03-14T23:14:21;5.57;;;3.30;;
9034;SDS011;4552;43.422;24.592;2023-03-14T23:16:47;4.00;;;2.80;;
9034;SDS011;4552;43.422;24.592;2023-03-14T23:19:14;5.80;;;3.13;;
9034;SDS011;4552;43.422;24.592;2023-03-14T23:21:42;4.77;;;3.13;;
9034;SDS011;4552;43.422;24.592;2023-03-14T23:24:09;4.03;;;3.00;;
9034;SDS011;4552;43.422;24.592;2023-03-14T23:26:36;5.63;;;3.40;;
9034;SDS011;4552;43.422;24.592;2023-03-14T23:29:04;4.83;;;3.20;;
9034;SDS011;4552;43.422;24.592;2023-03-14T23:31:31;5.33;;;2.63;;
9034;SDS011;4552;43.422;24.592;2023-03-14T23:33:58;3.67;;;2.87;;
9034;SDS011;4552;43.422;24.592;2023-03-14T23:36:25;4.13;;;2.77;;
9034;SDS011;4552;43.422;24.592;2023-03-14T23:38:53;4.20;;;2.50;;
